
Distance (Route):
Temperature : -52.4°C
Humidity : 1.2%
Pressure : 39.2hPa| Receiver | Date | Latitude | Longitude | Direction | Speed | Altitude | Climb | Temperature | Humidity | Pressure | Voltage | Killtimer | Uptime | BKT | XDATA |
|---|---|---|---|---|---|---|---|---|---|---|---|---|---|---|---|
| KRY50SP | 2026-09-04 12:23:46 | 51.98570 | 22.14493 | 6° | 24km/h | 22510m | 5.6m/s | -52.4°C | 1.2% | 39.2hPa | 0V | 00:00:00 | 00:00:00 | 00:00:00 | |
| SP4MAZ | 2026-09-04 12:23:39 | 51.98537 | 22.14485 | 7° | 4km/h | 22476m | 4.3m/s | -52.4°C | 1.2% | 39.5hPa | 0V | 00:00:00 | 00:00:00 | 00:00:00 | |
| KRY50SP | 2026-09-04 12:23:31 | 51.98514 | 22.14486 | 339° | 20km/h | 22438m | 5.8m/s | -52.4°C | 1.3% | 39.8hPa | 0V | 00:00:00 | 00:00:00 | 00:00:00 | |
| SP3WXH-11 | 2026-09-04 12:23:28 | 51.98507 | 22.14502 | 319° | 7km/h | 22416m | 3.8m/s | -52.3°C | 1.2% | 40.0hPa | 0V | 00:00:00 | 00:00:00 | 00:00:00 | |
| KRY50SP | 2026-09-04 12:23:25 | 51.98502 | 22.14503 | 326° | 5km/h | 22405m | 5.7m/s | -52.3°C | 1.2% | 40.0hPa | 0V | 00:00:00 | 00:00:00 | 00:00:00 | |
| KRY50SP | 2026-09-04 12:23:20 | 51.98500 | 22.14506 | 289° | 7km/h | 22382m | 5.8m/s | -52.2°C | 1.2% | 40.2hPa | 0V | 00:00:00 | 00:00:00 | 00:00:00 | |
| KRY50SP | 2026-09-04 12:23:14 | 51.98499 | 22.14537 | 250° | 11km/h | 22349m | 4.1m/s | -52.0°C | 1.2% | 40.5hPa | 0V | 00:00:00 | 00:00:00 | 00:00:00 | |
| KRY50SP | 2026-09-04 12:23:09 | 51.98506 | 22.14553 | 230° | 11km/h | 22316m | 6.4m/s | -52.1°C | 1.2% | 40.6hPa | 0V | 00:00:00 | 00:00:00 | 00:00:00 | |
| SP4MAZ | 2026-09-04 12:23:08 | 51.98508 | 22.14556 | 219° | 11km/h | 22309m | 5.3m/s | -52.0°C | 1.2% | 40.7hPa | 0V | 00:00:00 | 00:00:00 | 00:00:00 | |
| KRY50SP | 2026-09-04 12:23:03 | 51.98520 | 22.14568 | 225° | 11km/h | 22278m | 4.1m/s | -51.8°C | 1.2% | 40.9hPa | 0V | 00:00:00 | 00:00:00 | 00:00:00 | |
| KRY50SP | 2026-09-04 12:22:57 | 51.98528 | 22.14585 | 207° | 13km/h | 22239m | 3.4m/s | -51.8°C | 1.2% | 41.1hPa | 0V | 00:00:00 | 00:00:00 | 00:00:00 | |
| KRY50SP | 2026-09-04 12:22:51 | 51.98553 | 22.14594 | 197° | 31km/h | 22206m | 4.6m/s | -52.3°C | 1.2% | 41.3hPa | 0V | 00:00:00 | 00:00:00 | 00:00:00 | |
| KRY50SP | 2026-09-04 12:22:45 | 51.98575 | 22.14596 | 163° | 27km/h | 22171m | 4.1m/s | -52.6°C | 1.3% | 41.5hPa | 0V | 00:00:00 | 00:00:00 | 00:00:00 | |
| SP4MAZ | 2026-09-04 12:22:44 | 51.98581 | 22.14592 | 156° | 29km/h | 22167m | 5.0m/s | -52.6°C | 1.2% | 41.6hPa | 0V | 00:00:00 | 00:00:00 | 00:00:00 | |
| KRY50SP | 2026-09-04 12:22:39 | 51.98610 | 22.14561 | 155° | 26km/h | 22139m | 3.7m/s | -52.4°C | 1.2% | 41.8hPa | 0V | 00:00:00 | 00:00:00 | 00:00:00 | |
| KRY50SP | 2026-09-04 12:22:34 | 51.98636 | 22.14532 | 150° | 27km/h | 22112m | 3.0m/s | -52.3°C | 1.2% | 42.0hPa | 0V | 00:00:00 | 00:00:00 | 00:00:00 | |
| KRY50SP | 2026-09-04 12:22:29 | 51.98660 | 22.14499 | 149° | 29km/h | 22088m | 5.9m/s | -52.3°C | 1.2% | 42.1hPa | 0V | 00:00:00 | 00:00:00 | 00:00:00 | |
| SP3WXH-11 | 2026-09-04 12:22:26 | 51.98678 | 22.14476 | 139° | 18km/h | 22065m | 4.5m/s | -52.2°C | 1.2% | 42.3hPa | 0V | 00:00:00 | 00:00:00 | 00:00:00 | |
| KRY50SP | 2026-09-04 12:22:17 | 51.98716 | 22.14434 | 133° | 26km/h | 22013m | 5.4m/s | -52.0°C | 1.2% | 42.6hPa | 0V | 00:00:00 | 00:00:00 | 00:00:00 | |
| KRY50SP | 2026-09-04 12:22:11 | 51.98736 | 22.14396 | 130° | 15km/h | 21978m | 6.1m/s | -52.0°C | 1.2% | 42.8hPa | 0V | 00:00:00 | 00:00:00 | 00:00:00 | |
| KRY50SP | 2026-09-04 12:22:06 | 51.98750 | 22.14372 | 128° | 16km/h | 21941m | 4.9m/s | -51.9°C | 1.2% | 43.0hPa | 0V | 00:00:00 | 00:00:00 | 00:00:00 | |
| SP4MAZ | 2026-09-04 12:22:04 | 51.98754 | 22.14357 | 111° | 20km/h | 21929m | 6.6m/s | -52.1°C | 1.2% | 43.1hPa | 0V | 00:00:00 | 00:00:00 | 00:00:00 | |
| KRY50SP | 2026-09-04 12:22:00 | 51.98766 | 22.14328 | 139° | 20km/h | 21904m | 4.3m/s | -52.3°C | 1.2% | 43.2hPa | 0V | 00:00:00 | 00:00:00 | 00:00:00 | |
| KRY50SP | 2026-09-04 12:21:54 | 51.98779 | 22.14288 | 106° | 16km/h | 21866m | 4.0m/s | -52.6°C | 1.3% | 43.5hPa | 0V | 00:00:00 | 00:00:00 | 00:00:00 | |
| KRY50SP | 2026-09-04 12:21:49 | 51.98781 | 22.14243 | 91° | 24km/h | 21837m | 5.4m/s | -52.5°C | 1.2% | 43.6hPa | 0V | 00:00:00 | 00:00:00 | 00:00:00 | |
| KRY50SP | 2026-09-04 12:21:45 | 51.98780 | 22.14198 | 92° | 15km/h | 21806m | 3.9m/s | -52.6°C | 1.2% | 43.9hPa | 0V | 00:00:00 | 00:00:00 | 00:00:00 | |
| KRY50SP | 2026-09-04 12:21:38 | 51.98780 | 22.14160 | 111° | 18km/h | 21774m | 4.0m/s | -52.7°C | 1.2% | 44.1hPa | 0V | 00:00:00 | 00:00:00 | 00:00:00 | |
| KRY50SP | 2026-09-04 12:21:34 | 51.98784 | 22.14110 | 97° | 29km/h | 21745m | 6.0m/s | -52.8°C | 1.3% | 44.3hPa | 0V | 00:00:00 | 00:00:00 | 00:00:00 | |
| KRY50SP | 2026-09-04 12:21:27 | 51.98786 | 22.14047 | 86° | 22km/h | 21712m | 5.7m/s | -52.8°C | 1.3% | 44.5hPa | 0V | 00:00:00 | 00:00:00 | 00:00:00 | |
| SP3WXH-11 | 2026-09-04 12:21:24 | 51.98781 | 22.14007 | 77° | 24km/h | 21688m | 4.9m/s | -52.8°C | 1.3% | 44.7hPa | 0V | 00:00:00 | 00:00:00 | 00:00:00 | |
| KRY50SP | 2026-09-04 12:21:21 | 51.98779 | 22.13988 | 87° | 26km/h | 21677m | 4.9m/s | -52.8°C | 1.2% | 44.8hPa | 0V | 00:00:00 | 00:00:00 | 00:00:00 | |
| KRY50SP | 2026-09-04 12:21:16 | 51.98776 | 22.13932 | 85° | 29km/h | 21648m | 4.3m/s | -52.7°C | 1.2% | 45.0hPa | 0V | 00:00:00 | 00:00:00 | 00:00:00 | |
| SP4MAZ | 2026-09-04 12:21:14 | 51.98773 | 22.13908 | 79° | 27km/h | 21637m | 5.9m/s | -52.8°C | 1.2% | 45.0hPa | 0V | 00:00:00 | 00:00:00 | 00:00:00 | |
| KRY50SP | 2026-09-04 12:21:10 | 51.98769 | 22.13863 | 91° | 26km/h | 21614m | 4.5m/s | -53.0°C | 1.2% | 45.2hPa | 0V | 00:00:00 | 00:00:00 | 00:00:00 | |
| KRY50SP | 2026-09-04 12:21:04 | 51.98771 | 22.13798 | 108° | 27km/h | 21582m | 4.3m/s | -53.2°C | 1.3% | 45.4hPa | 0V | 00:00:00 | 00:00:00 | 00:00:00 | |
| SP3WXH-11 | 2026-09-04 12:20:53 | 51.98770 | 22.13680 | 77° | 24km/h | 21514m | 6.7m/s | -53.8°C | 1.3% | 45.9hPa | 0V | 00:00:00 | 00:00:00 | 00:00:00 | |
| SP4MAZ | 2026-09-04 12:20:51 | 51.98769 | 22.13670 | 68° | 24km/h | 21508m | 5.3m/s | -53.8°C | 1.4% | 46.0hPa | 0V | 00:00:00 | 00:00:00 | 00:00:00 | |
| KRY50SP | 2026-09-04 12:20:48 | 51.98764 | 22.13647 | 80° | 13km/h | 21491m | 4.8m/s | -53.9°C | 1.3% | 46.1hPa | 0V | 00:00:00 | 00:00:00 | 00:00:00 | |
| KRY50SP | 2026-09-04 12:20:42 | 51.98760 | 22.13611 | 92° | 18km/h | 21458m | 4.8m/s | -53.9°C | 1.4% | 46.3hPa | 0V | 00:00:00 | 00:00:00 | 00:00:00 | |
| KRY50SP | 2026-09-04 12:20:36 | 51.98752 | 22.13566 | 59° | 15km/h | 21420m | 5.9m/s | -53.7°C | 1.4% | 46.6hPa | 0V | 00:00:00 | 00:00:00 | 00:00:00 | |
| KRY50SP | 2026-09-04 12:20:31 | 51.98742 | 22.13544 | 64° | 18km/h | 21392m | 5.1m/s | -53.6°C | 1.3% | 46.8hPa | 0V | 00:00:00 | 00:00:00 | 00:00:00 | |
| KRY50SP | 2026-09-04 12:20:27 | 51.98733 | 22.13506 | 82° | 22km/h | 21364m | 3.8m/s | -53.4°C | 1.3% | 47.0hPa | 0V | 00:00:00 | 00:00:00 | 00:00:00 | |
| SP3WXH-11 | 2026-09-04 12:20:22 | 51.98729 | 22.13479 | 95° | 7km/h | 21335m | 6.5m/s | -53.4°C | 1.3% | 47.2hPa | 0V | 00:00:00 | 00:00:00 | 00:00:00 | |
| KRY50SP | 2026-09-04 12:20:20 | 51.98730 | 22.13477 | 150° | 5km/h | 21330m | 4.3m/s | -53.4°C | 1.3% | 47.3hPa | 0V | 00:00:00 | 00:00:00 | 00:00:00 | |
| SP4MAZ | 2026-09-04 12:20:19 | 51.98731 | 22.13475 | 140° | 4km/h | 21325m | 4.3m/s | -53.4°C | 1.3% | 47.3hPa | 0V | 00:00:00 | 00:00:00 | 00:00:00 | |
| KRY50SP | 2026-09-04 12:20:15 | 51.98726 | 22.13460 | 77° | 16km/h | 21304m | 4.7m/s | -53.4°C | 1.3% | 47.5hPa | 0V | 00:00:00 | 00:00:00 | 00:00:00 | |
| KRY50SP | 2026-09-04 12:20:09 | 51.98726 | 22.13436 | 119° | 5km/h | 21274m | 5.5m/s | -53.3°C | 1.3% | 47.7hPa | 0V | 00:00:00 | 00:00:00 | 00:00:00 | |
| SP3WXH-11 | 2026-09-04 12:19:51 | 51.98732 | 22.13413 | 173° | 9km/h | 21165m | 4.5m/s | -52.9°C | 1.3% | 48.5hPa | 0V | 00:00:00 | 00:00:00 | 00:00:00 | |
| KRY50SP | 2026-09-04 12:19:49 | 51.98734 | 22.13412 | 180° | 9km/h | 21159m | 5.6m/s | -53.0°C | 1.3% | 48.6hPa | 0V | 00:00:00 | 00:00:00 | 00:00:00 | |
| KRY50SP | 2026-09-04 12:19:43 | 51.98749 | 22.13407 | 126° | 13km/h | 21125m | 7.0m/s | -53.1°C | 1.3% | 48.8hPa | 0V | 00:00:00 | 00:00:00 | 00:00:00 | |
| KRY50SP | 2026-09-04 12:19:38 | 51.98757 | 22.13385 | 114° | 9km/h | 21094m | 4.6m/s | -53.3°C | 1.4% | 49.1hPa | 0V | 00:00:00 | 00:00:00 | 00:00:00 | |
| SP4MAZ | 2026-09-04 12:19:37 | 51.98757 | 22.13382 | 108° | 4km/h | 21089m | 6.7m/s | -53.3°C | 1.3% | 49.1hPa | 0V | 00:00:00 | 00:00:00 | 00:00:00 | |
| KRY50SP | 2026-09-04 12:19:32 | 51.98764 | 22.13370 | 115° | 16km/h | 21062m | 5.4m/s | -53.4°C | 1.4% | 49.3hPa | 0V | 00:00:00 | 00:00:00 | 00:00:00 | |
| KRY50SP | 2026-09-04 12:19:27 | 51.98772 | 22.13342 | 127° | 15km/h | 21034m | 5.8m/s | -53.3°C | 1.3% | 49.5hPa | 0V | 00:00:00 | 00:00:00 | 00:00:00 | |
| KRY50SP | 2026-09-04 12:19:21 | 51.98782 | 22.13317 | 126° | 16km/h | 20996m | 5.3m/s | -53.1°C | 1.3% | 49.8hPa | 0V | 00:00:00 | 00:00:00 | 00:00:00 | |
| SP3WXH-11 | 2026-09-04 12:19:20 | 51.98786 | 22.13306 | 114° | 16km/h | 20982m | 4.9m/s | -53.0°C | 1.3% | 49.9hPa | 0V | 00:00:00 | 00:00:00 | 00:00:00 | |
| KRY50SP | 2026-09-04 12:19:14 | 51.98796 | 22.13269 | 109° | 18km/h | 20953m | 5.4m/s | -52.9°C | 1.3% | 50.1hPa | 0V | 00:00:00 | 00:00:00 | 00:00:00 | |
| KRY50SP | 2026-09-04 12:19:09 | 51.98805 | 22.13237 | 111° | 16km/h | 20925m | 7.1m/s | -52.8°C | 1.3% | 50.4hPa | 0V | 00:00:00 | 00:00:00 | 00:00:00 | |
| KRY50SP | 2026-09-04 12:19:04 | 51.98806 | 22.13205 | 108° | 29km/h | 20894m | 3.5m/s | -53.0°C | 1.3% | 50.6hPa | 0V | 00:00:00 | 00:00:00 | 00:00:00 | |
| SP3WXH-11 | 2026-09-04 12:18:49 | 51.98821 | 22.13046 | 92° | 26km/h | 20801m | 4.7m/s | -53.7°C | 1.3% | 51.3hPa | 0V | 00:00:00 | 00:00:00 | 00:00:00 | |
| KRY50SP | 2026-09-04 12:18:47 | 51.98821 | 22.13036 | 91° | 22km/h | 20795m | 6.7m/s | -53.7°C | 1.3% | 51.4hPa | 0V | 00:00:00 | 00:00:00 | 00:00:00 | |
| KRY50SP | 2026-09-04 12:18:36 | 51.98804 | 22.12945 | 80° | 20km/h | 20729m | 5.9m/s | -53.7°C | 1.4% | 51.9hPa | 0V | 00:00:00 | 00:00:00 | 00:00:00 | |
| KRY50SP | 2026-09-04 12:18:30 | 51.98795 | 22.12894 | 83° | 20km/h | 20693m | 4.8m/s | -53.5°C | 1.4% | 52.2hPa | 0V | 00:00:00 | 00:00:00 | 00:00:00 | |
| SP4MAZ | 2026-09-04 12:18:29 | 51.98794 | 22.12886 | 81° | 20km/h | 20689m | 5.0m/s | -53.5°C | 1.4% | 52.2hPa | 0V | 00:00:00 | 00:00:00 | 00:00:00 | |
| KRY50SP | 2026-09-04 12:18:26 | 51.98796 | 22.12845 | 107° | 27km/h | 20665m | 5.8m/s | -53.3°C | 1.4% | 52.4hPa | 0V | 00:00:00 | 00:00:00 | 00:00:00 | |
| KRY50SP | 2026-09-04 12:18:19 | 51.98800 | 22.12786 | 84° | 18km/h | 20632m | 5.3m/s | -53.1°C | 1.3% | 52.7hPa | 0V | 00:00:00 | 00:00:00 | 00:00:00 | |
| SP3WXH-11 | 2026-09-04 12:18:18 | 51.98799 | 22.12771 | 79° | 18km/h | 20622m | 6.4m/s | -53.0°C | 1.3% | 52.8hPa | 0V | 00:00:00 | 00:00:00 | 00:00:00 | |
| KRY50SP | 2026-09-04 12:18:12 | 51.98800 | 22.12732 | 98° | 22km/h | 20595m | 6.1m/s | -52.8°C | 1.3% | 53.0hPa | 0V | 00:00:00 | 00:00:00 | 00:00:00 | |
| SP4MAZ | 2026-09-04 12:18:09 | 51.98804 | 22.12703 | 108° | 26km/h | 20577m | 7.1m/s | -52.7°C | 1.3% | 53.2hPa | 0V | 00:00:00 | 00:00:00 | 00:00:00 | |
| KRY50SP | 2026-09-04 12:18:06 | 51.98809 | 22.12678 | 106° | 24km/h | 20557m | 7.6m/s | -52.7°C | 1.3% | 53.3hPa | 0V | 00:00:00 | 00:00:00 | 00:00:00 | |
| SP3WXH-11 | 2026-09-04 12:17:47 | 51.98876 | 22.12474 | 121° | 29km/h | 20441m | 5.5m/s | -52.8°C | 1.3% | 54.3hPa | 0V | 00:00:00 | 00:00:00 | 00:00:00 | |
| KRY50SP | 2026-09-04 12:17:46 | 51.98876 | 22.12474 | 123° | 31km/h | 20441m | 5.5m/s | -52.8°C | 1.3% | 54.3hPa | 0V | 00:00:00 | 00:00:00 | 00:00:00 | |
| KRY50SP | 2026-09-04 12:17:39 | 51.98903 | 22.12411 | 129° | 27km/h | 20401m | 4.8m/s | -52.6°C | 1.3% | 54.6hPa | 0V | 00:00:00 | 00:00:00 | 00:00:00 | |
| KRY50SP | 2026-09-04 12:17:34 | 51.98924 | 22.12360 | 127° | 24km/h | 20372m | 6.3m/s | -52.9°C | 1.3% | 54.9hPa | 0V | 00:00:00 | 00:00:00 | 00:00:00 | |
| KRY50SP | 2026-09-04 12:17:28 | 51.98941 | 22.12317 | 132° | 18km/h | 20337m | 4.1m/s | -53.2°C | 1.3% | 55.1hPa | 0V | 00:00:00 | 00:00:00 | 00:00:00 | |
| SP4MAZ | 2026-09-04 12:17:26 | 51.98944 | 22.12308 | 130° | 9km/h | 20325m | 5.1m/s | -53.3°C | 1.4% | 55.2hPa | 0V | 00:00:00 | 00:00:00 | 00:00:00 | |
| KRY50SP | 2026-09-04 12:17:22 | 51.98956 | 22.12295 | 152° | 18km/h | 20306m | 4.7m/s | -53.2°C | 1.3% | 55.4hPa | 0V | 00:00:00 | 00:00:00 | 00:00:00 | |
| KRY50SP | 2026-09-04 12:17:17 | 51.98971 | 22.12267 | 119° | 22km/h | 20276m | 4.9m/s | -53.2°C | 1.3% | 55.7hPa | 0V | 00:00:00 | 00:00:00 | 00:00:00 | |
| SP3WXH-11 | 2026-09-04 12:17:16 | 51.98974 | 22.12249 | 105° | 26km/h | 20266m | 6.6m/s | -53.4°C | 1.3% | 55.8hPa | 0V | 00:00:00 | 00:00:00 | 00:00:00 | |
| KRY50SP | 2026-09-04 12:17:12 | 51.98982 | 22.12217 | 123° | 27km/h | 20251m | 6.3m/s | -53.6°C | 1.3% | 55.9hPa | 0V | 00:00:00 | 00:00:00 | 00:00:00 | |
| KRY50SP | 2026-09-04 12:17:03 | 51.99014 | 22.12134 | 115° | 31km/h | 20203m | 3.9m/s | -54.0°C | 1.4% | 56.4hPa | 0V | 00:00:00 | 00:00:00 | 00:00:00 | |
| KRY50SP | 2026-09-04 12:16:57 | 51.99036 | 22.12064 | 117° | 35km/h | 20167m | 6.0m/s | -54.0°C | 1.4% | 56.6hPa | 0V | 00:00:00 | 00:00:00 | 00:00:00 | |
| SP4MAZ | 2026-09-04 12:16:56 | 51.99040 | 22.12051 | 120° | 37km/h | 20162m | 6.2m/s | -54.0°C | 1.4% | 56.7hPa | 0V | 00:00:00 | 00:00:00 | 00:00:00 | |
| KRY50SP | 2026-09-04 12:16:49 | 51.99063 | 22.11957 | 110° | 35km/h | 20121m | 5.0m/s | -54.0°C | 1.4% | 57.0hPa | 0V | 00:00:00 | 00:00:00 | 00:00:00 | |
| KRY50SP | 2026-09-04 12:16:44 | 51.99071 | 22.11892 | 100° | 31km/h | 20092m | 4.4m/s | -53.8°C | 1.4% | 57.3hPa | 0V | 00:00:00 | 00:00:00 | 00:00:00 | |
| KRY50SP | 2026-09-04 12:16:38 | 51.99080 | 22.11795 | 97° | 44km/h | 20056m | 6.8m/s | -53.6°C | 1.4% | 57.6hPa | 0V | 00:00:00 | 00:00:00 | 00:00:00 | |
| SP4MAZ | 2026-09-04 12:16:36 | 51.99081 | 22.11761 | 95° | 38km/h | 20044m | 4.8m/s | -53.5°C | 1.4% | 57.7hPa | 0V | 00:00:00 | 00:00:00 | 00:00:00 | |
| KRY50SP | 2026-09-04 12:16:33 | 51.99085 | 22.11721 | 105° | 29km/h | 20026m | 4.6m/s | -53.5°C | 1.4% | 57.9hPa | 0V | 00:00:00 | 00:00:00 | 00:00:00 | |
| KRY50SP | 2026-09-04 12:16:28 | 51.99088 | 22.11656 | 93° | 35km/h | 19999m | 4.5m/s | -53.3°C | 1.4% | 58.1hPa | 0V | 00:00:00 | 00:00:00 | 00:00:00 | |
| KRY50SP | 2026-09-04 12:16:22 | 51.99089 | 22.11567 | 97° | 33km/h | 19964m | 5.9m/s | -53.2°C | 1.4% | 58.4hPa | 0V | 00:00:00 | 00:00:00 | 00:00:00 | |
| KRY50SP | 2026-09-04 12:16:16 | 51.99092 | 22.11488 | 86° | 35km/h | 19926m | 6.6m/s | -53.2°C | 1.4% | 58.8hPa | 0V | 00:00:00 | 00:00:00 | 00:00:00 | |
| SP4MAZ | 2026-09-04 12:16:15 | 51.99092 | 22.11475 | 92° | 33km/h | 19920m | 4.9m/s | -53.1°C | 1.4% | 58.8hPa | 0V | 00:00:00 | 00:00:00 | 00:00:00 | |
| SP3WXH-11 | 2026-09-04 12:16:14 | 51.99093 | 22.11433 | 88° | 31km/h | 19903m | 5.4m/s | -53.0°C | 1.4% | 58.9hPa | 0V | 00:00:00 | 00:00:00 | 00:00:00 | |
| KRY50SP | 2026-09-04 12:16:11 | 51.99092 | 22.11420 | 90° | 31km/h | 19896m | 6.5m/s | -52.9°C | 1.4% | 59.0hPa | 0V | 00:00:00 | 00:00:00 | 00:00:00 | |
| KRY50SP | 2026-09-04 12:16:05 | 51.99100 | 22.11351 | 105° | 22km/h | 19861m | 5.9m/s | -52.6°C | 1.4% | 59.3hPa | 0V | 00:00:00 | 00:00:00 | 00:00:00 | |
| KRY50SP | 2026-09-04 12:16:00 | 51.99106 | 22.11319 | 86° | 16km/h | 19833m | 6.1m/s | -52.5°C | 1.4% | 59.6hPa | 0V | 00:00:00 | 00:00:00 | 00:00:00 | |
| KRY50SP | 2026-09-04 12:15:55 | 51.99104 | 22.11276 | 99° | 26km/h | 19803m | 5.2m/s | -52.4°C | 1.3% | 59.8hPa | 0V | 00:00:00 | 00:00:00 | 00:00:00 | |
| SP4MAZ | 2026-09-04 12:15:52 | 51.99110 | 22.11244 | 119° | 26km/h | 19788m | 6.2m/s | -52.5°C | 1.3% | 60.0hPa | 0V | 00:00:00 | 00:00:00 | 00:00:00 | |
| KRY50SP | 2026-09-04 12:15:49 | 51.99119 | 22.11213 | 110° | 26km/h | 19772m | 6.3m/s | -52.5°C | 1.3% | 60.1hPa | 0V | 00:00:00 | 00:00:00 | 00:00:00 | |
| SP3WXH-11 | 2026-09-04 12:15:43 | 51.99124 | 22.11163 | 111° | 15km/h | 19729m | 4.8m/s | -52.4°C | 1.3% | 60.6hPa | 0V | 00:00:00 | 00:00:00 | 00:00:00 | |
| KRY50SP | 2026-09-04 12:15:37 | 51.99131 | 22.11141 | 124° | 18km/h | 19705m | 6.0m/s | -52.3°C | 1.3% | 60.8hPa | 0V | 00:00:00 | 00:00:00 | 00:00:00 | |
| KRY50SP | 2026-09-04 12:15:32 | 51.99139 | 22.11106 | 100° | 20km/h | 19677m | 6.1m/s | -52.2°C | 1.3% | 61.0hPa | 0V | 00:00:00 | 00:00:00 | 00:00:00 | |
| KRY50SP | 2026-09-04 12:15:27 | 51.99144 | 22.11063 | 104° | 20km/h | 19649m | 7.3m/s | -52.2°C | 1.3% | 61.3hPa | 0V | 00:00:00 | 00:00:00 | 00:00:00 | |
| KRY50SP | 2026-09-04 12:15:21 | 51.99156 | 22.11013 | 106° | 24km/h | 19616m | 5.6m/s | -52.1°C | 1.3% | 61.6hPa | 0V | 00:00:00 | 00:00:00 | 00:00:00 | |
| KRY50SP | 2026-09-04 12:15:15 | 51.99158 | 22.10967 | 79° | 26km/h | 19585m | 5.8m/s | -52.2°C | 1.3% | 62.0hPa | 0V | 00:00:00 | 00:00:00 | 00:00:00 | |
| SP3WXH-11 | 2026-09-04 12:15:12 | 51.99150 | 22.10911 | 77° | 31km/h | 19559m | 6.5m/s | -52.4°C | 1.3% | 62.2hPa | 0V | 00:00:00 | 00:00:00 | 00:00:00 | |
| KRY50SP | 2026-09-04 12:15:08 | 51.99147 | 22.10886 | 78° | 27km/h | 19547m | 6.7m/s | -52.3°C | 1.3% | 62.3hPa | 0V | 00:00:00 | 00:00:00 | 00:00:00 | |
| KRY50SP | 2026-09-04 12:14:56 | 51.99157 | 22.10762 | 105° | 29km/h | 19477m | 6.7m/s | -52.3°C | 1.3% | 63.0hPa | 0V | 00:00:00 | 00:00:00 | 00:00:00 | |
| KRY50SP | 2026-09-04 12:14:51 | 51.99173 | 22.10685 | 115° | 31km/h | 19443m | 6.2m/s | -52.3°C | 1.3% | 63.3hPa | 0V | 00:00:00 | 00:00:00 | 00:00:00 | |
| KRY50SP | 2026-09-04 12:14:45 | 51.99186 | 22.10620 | 106° | 35km/h | 19414m | 7.0m/s | -52.6°C | 1.3% | 63.6hPa | 0V | 00:00:00 | 00:00:00 | 00:00:00 | |
| SP3WXH-11 | 2026-09-04 12:14:41 | 51.99215 | 22.10530 | 129° | 44km/h | 19379m | 5.6m/s | -52.6°C | 1.3% | 64.0hPa | 0V | 00:00:00 | 00:00:00 | 00:00:00 | |
| SP4MAZ | 2026-09-04 12:14:39 | 51.99215 | 22.10530 | 130° | 44km/h | 19379m | 5.6m/s | -52.6°C | 1.3% | 64.0hPa | 0V | 00:00:00 | 00:00:00 | 00:00:00 | |
| KRY50SP | 2026-09-04 12:14:33 | 51.99247 | 22.10435 | 115° | 42km/h | 19347m | 5.5m/s | -52.8°C | 1.3% | 64.3hPa | 0V | 00:00:00 | 00:00:00 | 00:00:00 | |
| KRY50SP | 2026-09-04 12:14:28 | 51.99268 | 22.10356 | 118° | 38km/h | 19319m | 5.1m/s | -52.9°C | 1.3% | 64.6hPa | 0V | 00:00:00 | 00:00:00 | 00:00:00 | |
| KRY50SP | 2026-09-04 12:14:22 | 51.99293 | 22.10263 | 108° | 44km/h | 19285m | 6.3m/s | -53.3°C | 1.3% | 64.9hPa | 0V | 00:00:00 | 00:00:00 | 00:00:00 | |
| KRY50SP | 2026-09-04 12:14:16 | 51.99308 | 22.10163 | 111° | 42km/h | 19253m | 3.7m/s | -53.6°C | 1.3% | 65.3hPa | 0V | 00:00:00 | 00:00:00 | 00:00:00 | |
| KRY50SP | 2026-09-04 12:14:11 | 51.99327 | 22.10095 | 113° | 35km/h | 19229m | 4.3m/s | -54.3°C | 1.4% | 65.5hPa | 0V | 00:00:00 | 00:00:00 | 00:00:00 | |
| SP3WXH-11 | 2026-09-04 12:14:10 | 51.99336 | 22.10056 | 108° | 29km/h | 19213m | 5.1m/s | -54.4°C | 1.4% | 65.7hPa | 0V | 00:00:00 | 00:00:00 | 00:00:00 | |
| KRY50SP | 2026-09-04 12:14:05 | 51.99345 | 22.10019 | 103° | 33km/h | 19200m | 4.5m/s | -54.4°C | 1.5% | 65.9hPa | 0V | 00:00:00 | 00:00:00 | 00:00:00 | |
| KRY50SP | 2026-09-04 12:14:00 | 51.99349 | 22.09957 | 88° | 31km/h | 19172m | 5.1m/s | -54.4°C | 1.5% | 66.2hPa | 0V | 00:00:00 | 00:00:00 | 00:00:00 | |
| KRY50SP | 2026-09-04 12:13:55 | 51.99343 | 22.09898 | 83° | 33km/h | 19139m | 4.3m/s | -54.1°C | 1.4% | 66.5hPa | 0V | 00:00:00 | 00:00:00 | 00:00:00 | |
| SP4MAZ | 2026-09-04 12:13:50 | 51.99345 | 22.09839 | 108° | 27km/h | 19113m | 4.5m/s | -53.9°C | 1.4% | 66.8hPa | 0V | 00:00:00 | 00:00:00 | 00:00:00 | |
| KRY50SP | 2026-09-04 12:13:48 | 51.99348 | 22.09820 | 114° | 20km/h | 19102m | 6.3m/s | -53.8°C | 1.4% | 66.9hPa | 0V | 00:00:00 | 00:00:00 | 00:00:00 | |
| KRY50SP | 2026-09-04 12:13:43 | 51.99357 | 22.09773 | 98° | 29km/h | 19073m | 5.5m/s | -53.6°C | 1.4% | 67.1hPa | 0V | 00:00:00 | 00:00:00 | 00:00:00 | |
| KRY50SP | 2026-09-04 12:13:38 | 51.99357 | 22.09718 | 93° | 29km/h | 19042m | 4.8m/s | -53.5°C | 1.4% | 67.4hPa | 0V | 00:00:00 | 00:00:00 | 00:00:00 | |
| KRY50SP | 2026-09-04 12:13:32 | 51.99368 | 22.09651 | 118° | 31km/h | 19006m | 4.5m/s | -53.7°C | 1.4% | 67.8hPa | 0V | 00:00:00 | 00:00:00 | 00:00:00 | |
| SP4MAZ | 2026-09-04 12:13:28 | 51.99384 | 22.09605 | 120° | 29km/h | 18974m | 6.1m/s | -53.5°C | 1.4% | 68.1hPa | 0V | 00:00:00 | 00:00:00 | 00:00:00 | |
| KRY50SP | 2026-09-04 12:13:21 | 51.99404 | 22.09536 | 118° | 37km/h | 18941m | 5.4m/s | -53.3°C | 1.4% | 68.4hPa | 0V | 00:00:00 | 00:00:00 | 00:00:00 | |
| KRY50SP | 2026-09-04 12:13:16 | 51.99423 | 22.09469 | 112° | 37km/h | 18916m | 6.3m/s | -53.5°C | 1.4% | 68.7hPa | 0V | 00:00:00 | 00:00:00 | 00:00:00 | |
| KRY50SP | 2026-09-04 12:13:11 | 51.99444 | 22.09405 | 129° | 38km/h | 18890m | 5.0m/s | -53.7°C | 1.4% | 69.0hPa | 0V | 00:00:00 | 00:00:00 | 00:00:00 | |
| SP3WXH-11 | 2026-09-04 12:13:07 | 51.99476 | 22.09336 | 121° | 40km/h | 18862m | 5.0m/s | -53.8°C | 1.4% | 69.3hPa | 0V | 00:00:00 | 00:00:00 | 00:00:00 | |
| KRY50SP | 2026-09-04 12:13:04 | 51.99487 | 22.09306 | 118° | 46km/h | 18852m | 5.5m/s | -53.8°C | 1.4% | 69.4hPa | 0V | 00:00:00 | 00:00:00 | 00:00:00 | |
| SP4MAZ | 2026-09-04 12:12:58 | 51.99518 | 22.09220 | 126° | 38km/h | 18822m | 5.6m/s | -53.6°C | 1.4% | 69.7hPa | 0V | 00:00:00 | 00:00:00 | 00:00:00 | |
| KRY50SP | 2026-09-04 12:12:53 | 51.99541 | 22.09156 | 120° | 38km/h | 18795m | 6.4m/s | -53.6°C | 1.4% | 70.0hPa | 0V | 00:00:00 | 00:00:00 | 00:00:00 | |
| KRY50SP | 2026-09-04 12:12:47 | 51.99571 | 22.09076 | 126° | 42km/h | 18761m | 4.5m/s | -53.7°C | 1.4% | 70.4hPa | 0V | 00:00:00 | 00:00:00 | 00:00:00 | |
| KRY50SP | 2026-09-04 12:12:42 | 51.99599 | 22.09015 | 128° | 38km/h | 18737m | 6.0m/s | -53.8°C | 1.4% | 70.7hPa | 0V | 00:00:00 | 00:00:00 | 00:00:00 | |
| KRY50SP | 2026-09-04 12:12:36 | 51.99631 | 22.08941 | 115° | 38km/h | 18706m | 5.8m/s | -53.7°C | 1.4% | 71.0hPa | 0V | 00:00:00 | 00:00:00 | 00:00:00 | |
| SP4MAZ | 2026-09-04 12:12:35 | 51.99635 | 22.08927 | 116° | 40km/h | 18701m | 4.7m/s | -53.7°C | 1.4% | 71.1hPa | 0V | 00:00:00 | 00:00:00 | 00:00:00 | |
| KRY50SP | 2026-09-04 12:12:30 | 51.99657 | 22.08861 | 126° | 37km/h | 18675m | 5.7m/s | -54.1°C | 1.4% | 71.3hPa | 0V | 00:00:00 | 00:00:00 | 00:00:00 | |
| KRY50SP | 2026-09-04 12:12:24 | 51.99689 | 22.08766 | 119° | 51km/h | 18644m | 3.8m/s | -54.1°C | 1.4% | 71.7hPa | 0V | 00:00:00 | 00:00:00 | 00:00:00 | |
| KRY50SP | 2026-09-04 12:12:19 | 51.99716 | 22.08652 | 110° | 47km/h | 18613m | 6.5m/s | -54.1°C | 1.4% | 72.1hPa | 0V | 00:00:00 | 00:00:00 | 00:00:00 | |
| SP4MAZ | 2026-09-04 12:12:14 | 51.99731 | 22.08577 | 111° | 49km/h | 18592m | 3.9m/s | -54.2°C | 1.4% | 72.3hPa | 0V | 00:00:00 | 00:00:00 | 00:00:00 | |
| KRY50SP | 2026-09-04 12:12:13 | 51.99735 | 22.08558 | 107° | 44km/h | 18587m | 6.1m/s | -54.3°C | 1.5% | 72.4hPa | 0V | 00:00:00 | 00:00:00 | 00:00:00 | |
| KRY50SP | 2026-09-04 12:12:07 | 51.99749 | 22.08460 | 100° | 37km/h | 18553m | 5.1m/s | -54.0°C | 1.4% | 72.7hPa | 0V | 00:00:00 | 00:00:00 | 00:00:00 | |
| SP3WXH-11 | 2026-09-04 12:12:06 | 51.99757 | 22.08413 | 110° | 42km/h | 18538m | 4.6m/s | -53.9°C | 1.4% | 72.9hPa | 0V | 00:00:00 | 00:00:00 | 00:00:00 | |
| KRY50SP | 2026-09-04 12:12:01 | 51.99768 | 22.08364 | 105° | 40km/h | 18521m | 5.4m/s | -53.8°C | 1.4% | 73.1hPa | 0V | 00:00:00 | 00:00:00 | 00:00:00 | |
| SP4MAZ | 2026-09-04 12:11:54 | 51.99788 | 22.08258 | 111° | 35km/h | 18484m | 4.8m/s | -53.6°C | 1.4% | 73.5hPa | 0V | 00:00:00 | 00:00:00 | 00:00:00 | |
| KRY50SP | 2026-09-04 12:11:53 | 51.99791 | 22.08245 | 110° | 35km/h | 18480m | 4.4m/s | -53.6°C | 1.4% | 73.6hPa | 0V | 00:00:00 | 00:00:00 | 00:00:00 | |
| KRY50SP | 2026-09-04 12:11:48 | 51.99812 | 22.08179 | 120° | 42km/h | 18453m | 4.6m/s | -53.7°C | 1.4% | 73.9hPa | 0V | 00:00:00 | 00:00:00 | 00:00:00 | |
| KRY50SP | 2026-09-04 12:11:42 | 51.99843 | 22.08086 | 122° | 40km/h | 18422m | 6.3m/s | -53.7°C | 1.4% | 74.3hPa | 0V | 00:00:00 | 00:00:00 | 00:00:00 | |
| KRY50SP | 2026-09-04 12:11:36 | 51.99878 | 22.08006 | 125° | 42km/h | 18391m | 6.4m/s | -53.8°C | 1.4% | 74.7hPa | 0V | 00:00:00 | 00:00:00 | 00:00:00 | |
| SP3WXH-11 | 2026-09-04 12:11:34 | 51.99897 | 22.07956 | 121° | 49km/h | 18374m | 4.7m/s | -53.7°C | 1.5% | 74.9hPa | 0V | 00:00:00 | 00:00:00 | 00:00:00 | |
| KRY50SP | 2026-09-04 12:11:25 | 51.99940 | 22.07832 | 118° | 37km/h | 18329m | 7.0m/s | -53.5°C | 1.5% | 75.4hPa | 0V | 00:00:00 | 00:00:00 | 00:00:00 | |
| KRY50SP | 2026-09-04 12:11:19 | 51.99966 | 22.07732 | 105° | 51km/h | 18294m | 5.2m/s | -53.3°C | 1.4% | 75.7hPa | 0V | 00:00:00 | 00:00:00 | 00:00:00 | |
| KRY50SP | 2026-09-04 12:11:13 | 51.99994 | 22.07626 | 118° | 40km/h | 18264m | 4.7m/s | -53.2°C | 1.4% | 76.1hPa | 0V | 00:00:00 | 00:00:00 | 00:00:00 | |
| KRY50SP | 2026-09-04 12:11:08 | 52.00016 | 22.07541 | 110° | 47km/h | 18238m | 4.8m/s | -53.0°C | 1.4% | 76.4hPa | 0V | 00:00:00 | 00:00:00 | 00:00:00 | |
| SP3WXH-11 | 2026-09-04 12:11:03 | 52.00040 | 22.07427 | 108° | 47km/h | 18205m | 4.2m/s | -52.9°C | 1.4% | 76.8hPa | 0V | 00:00:00 | 00:00:00 | 00:00:00 | |
| KRY50SP | 2026-09-04 12:11:02 | 52.00040 | 22.07427 | 109° | 49km/h | 18205m | 4.2m/s | -52.9°C | 1.4% | 76.8hPa | 0V | 00:00:00 | 00:00:00 | 00:00:00 | |
| KRY50SP | 2026-09-04 12:10:57 | 52.00058 | 22.07333 | 107° | 49km/h | 18178m | 5.9m/s | -53.0°C | 1.4% | 77.1hPa | 0V | 00:00:00 | 00:00:00 | 00:00:00 | |
| KRY50SP | 2026-09-04 12:10:51 | 52.00075 | 22.07206 | 103° | 57km/h | 18143m | 5.5m/s | -52.9°C | 1.4% | 77.5hPa | 0V | 00:00:00 | 00:00:00 | 00:00:00 | |
| KRY50SP | 2026-09-04 12:10:46 | 52.00089 | 22.07098 | 105° | 51km/h | 18117m | 6.0m/s | -52.8°C | 1.4% | 77.8hPa | 0V | 00:00:00 | 00:00:00 | 00:00:00 | |
| KRY50SP | 2026-09-04 12:10:40 | 52.00109 | 22.06984 | 104° | 44km/h | 18084m | 6.2m/s | -52.6°C | 1.4% | 78.2hPa | 0V | 00:00:00 | 00:00:00 | 00:00:00 | |
| KRY50SP | 2026-09-04 12:10:33 | 52.00119 | 22.06858 | 96° | 42km/h | 18045m | 5.2m/s | -52.4°C | 1.4% | 78.7hPa | 0V | 00:00:00 | 00:00:00 | 00:00:00 | |
| SP3WXH-11 | 2026-09-04 12:10:32 | 52.00119 | 22.06824 | 89° | 42km/h | 18031m | 4.8m/s | -52.3°C | 1.4% | 78.8hPa | 0V | 00:00:00 | 00:00:00 | 00:00:00 | |
| KRY50SP | 2026-09-04 12:10:28 | 52.00122 | 22.06772 | 104° | 42km/h | 18014m | 5.1m/s | -52.2°C | 0% | 0hPa | 0V | 00:00:00 | 00:00:00 | 00:00:00 | |
| KRY50SP | 2026-09-04 12:10:23 | 52.00132 | 22.06686 | 104° | 44km/h | 17988m | 6.3m/s | -52.1°C | 0% | 0hPa | 0V | 00:00:00 | 00:00:00 | 00:00:00 | |
| KRY50SP | 2026-09-04 12:10:18 | 52.00139 | 22.06606 | 101° | 33km/h | 17961m | 6.8m/s | -52.1°C | 0% | 0hPa | 0V | 00:00:00 | 00:00:00 | 00:00:00 | |
| KRY50SP | 2026-09-04 12:10:12 | 52.00153 | 22.06518 | 107° | 40km/h | 17930m | 6.1m/s | -51.9°C | 0% | 0hPa | 0V | 00:00:00 | 00:00:00 | 00:00:00 | |
| SP4MAZ | 2026-09-04 12:10:10 | 52.00159 | 22.06485 | 105° | 42km/h | 17919m | 5.4m/s | -51.8°C | 1.4% | 80.2hPa | 0V | 00:00:00 | 00:00:00 | 00:00:00 | |
| KRY50SP | 2026-09-04 12:10:06 | 52.00170 | 22.06412 | 108° | 49km/h | 17898m | 4.5m/s | -51.7°C | 0% | 0hPa | 0V | 00:00:00 | 00:00:00 | 00:00:00 | |
| SP3WXH-11 | 2026-09-04 12:10:01 | 52.00190 | 22.06298 | 105° | 46km/h | 17869m | 4.7m/s | -51.6°C | 1.3% | 80.9hPa | 0V | 00:00:00 | 00:00:00 | 00:00:00 | |
| KRY50SP | 2026-09-04 12:10:00 | 52.00190 | 22.06298 | 106° | 46km/h | 17869m | 4.7m/s | -51.6°C | 0% | 0hPa | 0V | 00:00:00 | 00:00:00 | 00:00:00 | |
| KRY50SP | 2026-09-04 12:09:55 | 52.00202 | 22.06198 | 105° | 53km/h | 17841m | 5.1m/s | -51.5°C | 0% | 0hPa | 0V | 00:00:00 | 00:00:00 | 00:00:00 | |
| KRY50SP | 2026-09-04 12:09:50 | 52.00221 | 22.06095 | 114° | 51km/h | 17815m | 4.7m/s | -51.3°C | 0% | 0hPa | 0V | 00:00:00 | 00:00:00 | 00:00:00 | |
| SP4MAZ | 2026-09-04 12:09:47 | 52.00236 | 22.06017 | 107° | 51km/h | 17793m | 6.9m/s | -51.3°C | 1.3% | 81.8hPa | 0V | 00:00:00 | 00:00:00 | 00:00:00 | |
| KRY50SP | 2026-09-04 12:09:45 | 52.00240 | 22.05997 | 108° | 51km/h | 17787m | 5.6m/s | -51.2°C | 0% | 0hPa | 0V | 00:00:00 | 00:00:00 | 00:00:00 | |
| KRY50SP | 2026-09-04 12:09:40 | 52.00262 | 22.05909 | 120° | 47km/h | 17757m | 4.9m/s | -51.2°C | 0% | 0hPa | 0V | 00:00:00 | 00:00:00 | 00:00:00 | |
| KRY50SP | 2026-09-04 12:09:33 | 52.00303 | 22.05792 | 115° | 49km/h | 17720m | 4.5m/s | -51.6°C | 0% | 0hPa | 0V | 00:00:00 | 00:00:00 | 00:00:00 | |
| SP3WXH-11 | 2026-09-04 12:09:30 | 52.00323 | 22.05712 | 109° | 51km/h | 17699m | 4.9m/s | -51.8°C | 1.3% | 83.0hPa | 0V | 00:00:00 | 00:00:00 | 00:00:00 | |
| KRY50SP | 2026-09-04 12:09:27 | 52.00333 | 22.05670 | 114° | 57km/h | 17689m | 7.1m/s | -51.9°C | 0% | 0hPa | 0V | 00:00:00 | 00:00:00 | 00:00:00 | |
| SP4MAZ | 2026-09-04 12:09:25 | 52.00345 | 22.05629 | 118° | 53km/h | 17678m | 5.8m/s | -51.9°C | 1.4% | 83.2hPa | 0V | 00:00:00 | 00:00:00 | 00:00:00 | |
| KRY50SP | 2026-09-04 12:09:22 | 52.00362 | 22.05573 | 116° | 51km/h | 17661m | 5.3m/s | -51.8°C | 0% | 0hPa | 0V | 00:00:00 | 00:00:00 | 00:00:00 | |
| KRY50SP | 2026-09-04 12:09:16 | 52.00384 | 22.05459 | 104° | 47km/h | 17630m | 4.3m/s | -51.9°C | 0% | 0hPa | 0V | 00:00:00 | 00:00:00 | 00:00:00 | |
| KRY50SP | 2026-09-04 12:09:11 | 52.00397 | 22.05363 | 105° | 51km/h | 17605m | 4.4m/s | 0°C | 0% | 0hPa | 0V | 00:00:00 | 00:00:00 | 00:00:00 | |
| KRY50SP | 2026-09-04 12:09:06 | 52.00410 | 22.05264 | 101° | 53km/h | 17577m | 5.3m/s | 0°C | 0% | 0hPa | 0V | 00:00:00 | 00:00:00 | 00:00:00 | |
| SP4MAZ | 2026-09-04 12:09:04 | 52.00414 | 22.05222 | 96° | 53km/h | 17568m | 4.1m/s | -52.6°C | 1.4% | 84.7hPa | 0V | 00:00:00 | 00:00:00 | 00:00:00 | |
| SP3WXH-11 | 2026-09-04 12:08:59 | 52.00419 | 22.05097 | 93° | 46km/h | 17536m | 6.4m/s | -52.5°C | 1.4% | 85.1hPa | 0V | 00:00:00 | 00:00:00 | 00:00:00 | |
| KRY50SP | 2026-09-04 12:08:55 | 52.00422 | 22.05038 | 95° | 47km/h | 17520m | 4.8m/s | 0°C | 0% | 0hPa | 0V | 00:00:00 | 00:00:00 | 00:00:00 | |
| SP4MAZ | 2026-09-04 12:08:43 | 52.00440 | 22.04812 | 105° | 46km/h | 17457m | 5.8m/s | -52.5°C | 1.4% | 86.2hPa | 0V | 00:00:00 | 00:00:00 | 00:00:00 | |
| SP3WXH-11 | 2026-09-04 12:08:28 | 52.00458 | 22.04530 | 104° | 42km/h | 17373m | 4.8m/s | -52.6°C | 1.4% | 87.3hPa | 0V | 00:00:00 | 00:00:00 | 00:00:00 | |
| SP4MAZ | 2026-09-04 12:08:23 | 52.00467 | 22.04464 | 101° | 40km/h | 17353m | 5.1m/s | -52.8°C | 1.4% | 87.6hPa | 0V | 00:00:00 | 00:00:00 | 00:00:00 | |
| SP3WXH-11 | 2026-09-04 12:07:57 | 52.00492 | 22.03987 | 85° | 40km/h | 17212m | 6.2m/s | -52.9°C | 1.5% | 89.5hPa | 0V | 00:00:00 | 00:00:00 | 00:00:00 | |
| SP4MAZ | 2026-09-04 12:07:56 | 52.00492 | 22.03987 | 87° | 40km/h | 17212m | 6.2m/s | -52.9°C | 1.5% | 89.5hPa | 0V | 00:00:00 | 00:00:00 | 00:00:00 | |
| SP4MAZ | 2026-09-04 12:07:35 | 52.00468 | 22.03656 | 93° | 40km/h | 17105m | 6.1m/s | -53.0°C | 1.5% | 91.0hPa | 0V | 00:00:00 | 00:00:00 | 00:00:00 | |
| SP3WXH-11 | 2026-09-04 12:07:26 | 52.00471 | 22.03511 | 89° | 29km/h | 17055m | 6.0m/s | -53.4°C | 1.5% | 91.8hPa | 0V | 00:00:00 | 00:00:00 | 00:00:00 | |
| SP4MAZ | 2026-09-04 12:07:13 | 52.00493 | 22.03303 | 106° | 47km/h | 16994m | 5.7m/s | -53.9°C | 1.6% | 92.6hPa | 0V | 00:00:00 | 00:00:00 | 00:00:00 | |
| SP3WXH-11 | 2026-09-04 12:06:55 | 52.00544 | 22.03003 | 107° | 35km/h | 16892m | 4.1m/s | -53.4°C | 1.6% | 94.1hPa | 0V | 00:00:00 | 00:00:00 | 00:00:00 | |
| SP4MAZ | 2026-09-04 12:06:43 | 52.00574 | 22.02844 | 109° | 42km/h | 16837m | 4.8m/s | -53.0°C | 1.5% | 94.9hPa | 0V | 00:00:00 | 00:00:00 | 00:00:00 | |
| SP3WXH-11 | 2026-09-04 12:06:24 | 52.00653 | 22.02511 | 113° | 46km/h | 16731m | 4.5m/s | -53.5°C | 1.6% | 96.5hPa | 0V | 00:00:00 | 00:00:00 | 00:00:00 | |
| SP4MAZ | 2026-09-04 12:06:22 | 52.00658 | 22.02493 | 115° | 47km/h | 16727m | 6.1m/s | -53.5°C | 1.6% | 96.5hPa | 0V | 00:00:00 | 00:00:00 | 00:00:00 | |
| SP3WXH-11 | 2026-09-04 12:05:53 | 52.00822 | 22.01906 | 125° | 51km/h | 16566m | 4.8m/s | -53.3°C | 1.6% | 98.9hPa | 0V | 00:00:00 | 00:00:00 | 00:00:00 | |
| SP3WXH-11 | 2026-09-04 12:05:22 | 52.01021 | 22.01349 | 121° | 53km/h | 16412m | 5.4m/s | -53.6°C | 1.6% | 101.3hPa | 0V | 00:00:00 | 00:00:00 | 00:00:00 | |
| SP4MAZ | 2026-09-04 12:05:06 | 52.01114 | 22.01018 | 113° | 57km/h | 16336m | 3.2m/s | -53.7°C | 1.7% | 102.5hPa | 0V | 00:00:00 | 00:00:00 | 00:00:00 | |
| SP3WXH-11 | 2026-09-04 12:04:51 | 52.01190 | 22.00667 | 107° | 46km/h | 16252m | 6.2m/s | -53.3°C | 1.6% | 103.9hPa | 0V | 00:00:00 | 00:00:00 | 00:00:00 | |
| SP4MAZ | 2026-09-04 12:04:45 | 52.01206 | 22.00593 | 114° | 49km/h | 16231m | 3.6m/s | -53.2°C | 1.6% | 104.2hPa | 0V | 00:00:00 | 00:00:00 | 00:00:00 | |
| SP3WXH-11 | 2026-09-04 12:04:20 | 52.01299 | 22.00117 | 112° | 44km/h | 16101m | 3.9m/s | -52.7°C | 1.6% | 106.4hPa | 0V | 00:00:00 | 00:00:00 | 00:00:00 | |
| SP4MAZ | 2026-09-04 12:04:17 | 52.01303 | 22.00101 | 113° | 44km/h | 16096m | 6.1m/s | -52.6°C | 1.6% | 106.5hPa | 0V | 00:00:00 | 00:00:00 | 00:00:00 | |
| SP3WXH-11 | 2026-09-04 12:03:49 | 52.01460 | 21.99677 | 131° | 38km/h | 15945m | 6.7m/s | -52.4°C | 1.5% | 109.0hPa | 0V | 00:00:00 | 00:00:00 | 00:00:00 | |
| SP4MAZ | 2026-09-04 12:03:35 | 52.01542 | 21.99501 | 123° | 46km/h | 15885m | 6.0m/s | -53.0°C | 0% | 110.0hPa | 0V | 00:00:00 | 00:00:00 | 00:00:00 | |
| SP3WXH-11 | 2026-09-04 12:03:18 | 52.01662 | 21.99131 | 114° | 62km/h | 15786m | 5.4m/s | -53.2°C | 1.6% | 111.7hPa | 0V | 00:00:00 | 00:00:00 | 00:00:00 | |
| SP4MAZ | 2026-09-04 12:03:14 | 52.01676 | 21.99084 | 118° | 64km/h | 15777m | 5.2m/s | -53.3°C | 0% | 111.9hPa | 0V | 00:00:00 | 00:00:00 | 00:00:00 | |
| SP3WXH-11 | 2026-09-04 12:02:47 | 52.01838 | 21.98384 | 110° | 60km/h | 15634m | 4.5m/s | -54.4°C | 1.8% | 114.4hPa | 0V | 00:00:00 | 00:00:00 | 00:00:00 | |
| SP4MAZ | 2026-09-04 12:02:42 | 52.01855 | 21.98314 | 111° | 60km/h | 15619m | 6.4m/s | -54.4°C | 1.8% | 114.7hPa | 0V | 00:00:00 | 00:00:00 | 00:00:00 | |
| SP4MAZ | 2026-09-04 12:02:19 | 52.01979 | 21.97800 | 114° | 64km/h | 15505m | 5.0m/s | -54.4°C | 0% | 116.7hPa | 0V | 00:00:00 | 00:00:00 | 00:00:00 | |
| SP3WXH-11 | 2026-09-04 12:02:16 | 52.02011 | 21.97675 | 112° | 68km/h | 15482m | 5.7m/s | -54.3°C | 1.9% | 117.1hPa | 0V | 00:00:00 | 00:00:00 | 00:00:00 | |
| SP4MAZ | 2026-09-04 12:01:59 | 52.02102 | 21.97313 | 113° | 60km/h | 15412m | 5.6m/s | -53.8°C | 0% | 118.4hPa | 0V | 00:00:00 | 00:00:00 | 00:00:00 | |
| SP3WXH-11 | 2026-09-04 12:01:44 | 52.02196 | 21.96963 | 114° | 60km/h | 15337m | 5.8m/s | -53.4°C | 1.8% | 119.8hPa | 0V | 00:00:00 | 00:00:00 | 00:00:00 | |
| SP4MAZ | 2026-09-04 12:01:29 | 52.02286 | 21.96657 | 121° | 62km/h | 15264m | 6.2m/s | -53.9°C | 1.9% | 121.2hPa | 0V | 00:00:00 | 00:00:00 | 00:00:00 | |
| SP3WXH-11 | 2026-09-04 12:01:13 | 52.02424 | 21.96289 | 125° | 62km/h | 15181m | 5.6m/s | -54.7°C | 2.0% | 122.8hPa | 0V | 00:00:00 | 00:00:00 | 00:00:00 | |
| SP4MAZ | 2026-09-04 12:01:09 | 52.02451 | 21.96227 | 124° | 60km/h | 15167m | 3.5m/s | -54.7°C | 2.1% | 123.1hPa | 0V | 00:00:00 | 00:00:00 | 00:00:00 | |
| SP4MAZ | 2026-09-04 12:00:45 | 52.02656 | 21.95662 | 123° | 68km/h | 15041m | 3.4m/s | -54.9°C | 0% | 125.5hPa | 0V | 00:00:00 | 00:00:00 | 00:00:00 | |
| SP3WXH-11 | 2026-09-04 12:00:42 | 52.02690 | 21.95563 | 116° | 71km/h | 15020m | 4.3m/s | -54.9°C | 2.2% | 125.9hPa | 0V | 00:00:00 | 00:00:00 | 00:00:00 | |
| SP4MAZ | 2026-09-04 12:00:25 | 52.02829 | 21.95130 | 117° | 80km/h | 14936m | 5.5m/s | -54.5°C | 0% | 127.5hPa | 0V | 00:00:00 | 00:00:00 | 00:00:00 | |
| SP3WXH-11 | 2026-09-04 12:00:11 | 52.02967 | 21.94680 | 118° | 86km/h | 14856m | 5.1m/s | -54.8°C | 2.3% | 129.1hPa | 0V | 00:00:00 | 00:00:00 | 00:00:00 | |
| SP3WXH-11 | 2026-09-04 11:59:40 | 52.03222 | 21.93673 | 115° | 77km/h | 14695m | 5.5m/s | -55.4°C | 2.4% | 132.4hPa | 0V | 00:00:00 | 00:00:00 | 00:00:00 | |
| SP4MAZ | 2026-09-04 11:59:38 | 52.03231 | 21.93644 | 118° | 78km/h | 14691m | 3.5m/s | -55.4°C | 2.4% | 132.6hPa | 0V | 00:00:00 | 00:00:00 | 00:00:00 | |
| SP4MAZ | 2026-09-04 11:59:15 | 52.03445 | 21.93025 | 122° | 75km/h | 14579m | 3.4m/s | -55.4°C | 0% | 134.9hPa | 0V | 00:00:00 | 00:00:00 | 00:00:00 | |
| SP3WXH-11 | 2026-09-04 11:59:09 | 52.03518 | 21.92835 | 122° | 78km/h | 14544m | 6.1m/s | -56.1°C | 2.6% | 135.7hPa | 0V | 00:00:00 | 00:00:00 | 00:00:00 | |
| SP4MAZ | 2026-09-04 11:58:43 | 52.03797 | 21.92112 | 119° | 78km/h | 14423m | 5.5m/s | -56.0°C | 2.7% | 138.3hPa | 0V | 00:00:00 | 00:00:00 | 00:00:00 | |
| SP3WXH-11 | 2026-09-04 11:58:38 | 52.03859 | 21.91936 | 117° | 82km/h | 14397m | 5.0m/s | -56.6°C | 2.9% | 138.9hPa | 0V | 00:00:00 | 00:00:00 | 00:00:00 | |
| SP4MAZ | 2026-09-04 11:58:23 | 52.03976 | 21.91512 | 115° | 75km/h | 14326m | 6.1m/s | -56.7°C | 3.0% | 140.4hPa | 0V | 00:00:00 | 00:00:00 | 00:00:00 | |
| SP3WXH-11 | 2026-09-04 11:58:07 | 52.04120 | 21.91078 | 120° | 75km/h | 14241m | 5.5m/s | -56.4°C | 3.2% | 142.3hPa | 0V | 00:00:00 | 00:00:00 | 00:00:00 | |
| SP4MAZ | 2026-09-04 11:58:01 | 52.04170 | 21.90951 | 128° | 73km/h | 14215m | 6.3m/s | -56.4°C | 0% | 142.9hPa | 0V | 00:00:00 | 00:00:00 | 00:00:00 | |
| SP4MAZ | 2026-09-04 11:57:41 | 52.04385 | 21.90476 | 126° | 68km/h | 14119m | 5.5m/s | -56.1°C | 0% | 145.0hPa | 0V | 00:00:00 | 00:00:00 | 00:00:00 | |
| SP3WXH-11 | 2026-09-04 11:57:36 | 52.04455 | 21.90337 | 131° | 75km/h | 14087m | 7.0m/s | -56.0°C | 3.7% | 145.8hPa | 0V | 00:00:00 | 00:00:00 | 00:00:00 | |
| SP4MAZ | 2026-09-04 11:57:10 | 52.04792 | 21.89748 | 133° | 80km/h | 13954m | 6.9m/s | -55.8°C | 4.3% | 148.8hPa | 0V | 00:00:00 | 00:00:00 | 00:00:00 | |
| SP3WXH-11 | 2026-09-04 11:57:05 | 52.04887 | 21.89594 | 133° | 88km/h | 13919m | 4.8m/s | -55.9°C | 4.6% | 149.7hPa | 0V | 00:00:00 | 00:00:00 | 00:00:00 | |
| SP4MAZ | 2026-09-04 11:56:47 | 52.05153 | 21.89070 | 128° | 99km/h | 13835m | 4.8m/s | -56.8°C | 0% | 151.7hPa | 0V | 00:00:00 | 00:00:00 | 00:00:00 | |
| SP3WXH-11 | 2026-09-04 11:56:34 | 52.05396 | 21.88609 | 132° | 110km/h | 13768m | 5.4m/s | -57.7°C | 6.9% | 153.3hPa | 0V | 00:00:00 | 00:00:00 | 00:00:00 | |
| SP4MAZ | 2026-09-04 11:56:27 | 52.05508 | 21.88404 | 131° | 113km/h | 13739m | 4.2m/s | -57.9°C | 0% | 154.0hPa | 0V | 00:00:00 | 00:00:00 | 00:00:00 | |
| SP3WXH-11 | 2026-09-04 11:56:03 | 52.05906 | 21.87448 | 119° | 108km/h | 13619m | 5.6m/s | -59.1°C | 10.2% | 157.0hPa | 0V | 00:00:00 | 00:00:00 | 00:00:00 | |
| SP4MAZ | 2026-09-04 11:55:55 | 52.06001 | 21.87173 | 119° | 110km/h | 13584m | 5.0m/s | -59.4°C | 11.1% | 157.9hPa | 0V | 00:00:00 | 00:00:00 | 00:00:00 | |
| SP3WXH-11 | 2026-09-04 11:55:32 | 52.06326 | 21.86279 | 122° | 108km/h | 13461m | 5.0m/s | -61.0°C | 17.6% | 161.0hPa | 0V | 00:00:00 | 00:00:00 | 00:00:00 | |
| SP4MAZ | 2026-09-04 11:55:12 | 52.06654 | 21.85537 | 129° | 120km/h | 13362m | 5.5m/s | -60.9°C | 0% | 163.6hPa | 0V | 00:00:00 | 00:00:00 | 00:00:00 | |
| SP3WXH-11 | 2026-09-04 11:55:01 | 52.06881 | 21.85068 | 130° | 124km/h | 13299m | 4.8m/s | -61.8°C | 26.4% | 165.2hPa | 0V | 00:00:00 | 00:00:00 | 00:00:00 | |
| SP4MAZ | 2026-09-04 11:54:52 | 52.07051 | 21.84739 | 131° | 133km/h | 13256m | 6.3m/s | -62.2°C | 0% | 166.4hPa | 0V | 00:00:00 | 00:00:00 | 00:00:00 | |
| SP4MAZ | 2026-09-04 11:54:32 | 52.07458 | 21.83897 | 129° | 128km/h | 13152m | 4.9m/s | -62.3°C | 0% | 169.2hPa | 0V | 00:00:00 | 00:00:00 | 00:00:00 | |
| SP3WXH-11 | 2026-09-04 11:54:30 | 52.07542 | 21.83736 | 132° | 124km/h | 13130m | 4.5m/s | -62.2°C | 38.2% | 169.8hPa | 0V | 00:00:00 | 00:00:00 | 00:00:00 | |
| SP4MAZ | 2026-09-04 11:54:01 | 52.08146 | 21.82685 | 137° | 128km/h | 12984m | 4.7m/s | -62.4°C | 51.3% | 173.8hPa | 0V | 00:00:00 | 00:00:00 | 00:00:00 | |
| SP3WXH-11 | 2026-09-04 11:53:59 | 52.08218 | 21.82576 | 137° | 130km/h | 12966m | 7.4m/s | -62.5°C | 52.2% | 174.3hPa | 0V | 00:00:00 | 00:00:00 | 00:00:00 | |
| SP4MAZ | 2026-09-04 11:53:40 | 52.08691 | 21.81882 | 138° | 150km/h | 12857m | 8.3m/s | -62.8°C | 58.5% | 177.4hPa | 0V | 00:00:00 | 00:00:00 | 00:00:00 | |
| SP3WXH-11 | 2026-09-04 11:53:28 | 52.09098 | 21.81246 | 135° | 166km/h | 12780m | 3.9m/s | -63.0°C | 65.2% | 179.8hPa | 0V | 00:00:00 | 00:00:00 | 00:00:00 | |
| SP4MAZ | 2026-09-04 11:53:20 | 52.09273 | 21.80951 | 135° | 166km/h | 12749m | 4.8m/s | -63.3°C | 64.5% | 180.6hPa | 0V | 00:00:00 | 00:00:00 | 00:00:00 | |
| SP3WXH-11 | 2026-09-04 11:52:57 | 52.09969 | 21.79655 | 131° | 175km/h | 12615m | 6.3m/s | -62.2°C | 58.9% | 184.6hPa | 0V | 00:00:00 | 00:00:00 | 00:00:00 | |
| SP4MAZ | 2026-09-04 11:52:56 | 52.09940 | 21.79709 | 132° | 175km/h | 12621m | 5.7m/s | -62.1°C | 0% | 184.4hPa | 0V | 00:00:00 | 00:00:00 | 00:00:00 | |
| SP4MAZ | 2026-09-04 11:52:36 | 52.10496 | 21.78621 | 129° | 175km/h | 12509m | 4.9m/s | -61.4°C | 0% | 187.9hPa | 0V | 00:00:00 | 00:00:00 | 00:00:00 | |
| SP3WXH-11 | 2026-09-04 11:52:26 | 52.10826 | 21.77959 | 128° | 173km/h | 12454m | 7.2m/s | -61.3°C | 63.8% | 189.5hPa | 0V | 00:00:00 | 00:00:00 | 00:00:00 | |
| SP4MAZ | 2026-09-04 11:52:05 | 52.11374 | 21.76906 | 131° | 172km/h | 12361m | 6.8m/s | 0°C | 0% | 192.3hPa | 0V | 00:00:00 | 00:00:00 | 00:00:00 | |
| SP4MAZ | 2026-09-04 11:51:41 | 52.12038 | 21.75560 | 128° | 177km/h | 12247m | 3.8m/s | -61.0°C | 0% | 195.8hPa | 0V | 00:00:00 | 00:00:00 | 00:00:00 | |
| SP3WXH-11 | 2026-09-04 11:51:24 | 52.12558 | 21.74500 | 126° | 175km/h | 12154m | 4.5m/s | -60.6°C | 55.9% | 198.8hPa | 0V | 00:00:00 | 00:00:00 | 00:00:00 | |
| SP4MAZ | 2026-09-04 11:51:21 | 52.12584 | 21.74441 | 127° | 175km/h | 12150m | 4.1m/s | -60.7°C | 0% | 198.9hPa | 0V | 00:00:00 | 00:00:00 | 00:00:00 | |
| SP4MAZ | 2026-09-04 11:51:01 | 52.13090 | 21.73361 | 127° | 170km/h | 12047m | 5.2m/s | -59.7°C | 0% | 202.3hPa | 0V | 00:00:00 | 00:00:00 | 00:00:00 | |
| SP3WXH-11 | 2026-09-04 11:50:53 | 52.13336 | 21.72822 | 129° | 157km/h | 11994m | 5.8m/s | -59.4°C | 57.6% | 204.0hPa | 0V | 00:00:00 | 00:00:00 | 00:00:00 | |
| SP4MAZ | 2026-09-04 11:50:30 | 52.13839 | 21.71749 | 129° | 157km/h | 11877m | 5.6m/s | 0°C | 0% | 207.7hPa | 0V | 00:00:00 | 00:00:00 | 00:00:00 | |
| SP3WXH-11 | 2026-09-04 11:50:22 | 52.14074 | 21.71242 | 127° | 155km/h | 11829m | 6.2m/s | -57.9°C | 60.2% | 209.4hPa | 0V | 00:00:00 | 00:00:00 | 00:00:00 | |
| SP4MAZ | 2026-09-04 11:50:07 | 52.14384 | 21.70563 | 127° | 157km/h | 11763m | 5.7m/s | -57.2°C | 0% | 211.7hPa | 0V | 00:00:00 | 00:00:00 | 00:00:00 | |
| SP3WXH-11 | 2026-09-04 11:49:50 | 52.14805 | 21.69635 | 128° | 157km/h | 11676m | 5.1m/s | -56.4°C | 61.1% | 214.5hPa | 0V | 00:00:00 | 00:00:00 | 00:00:00 | |
| SP4MAZ | 2026-09-04 11:49:46 | 52.14878 | 21.69483 | 128° | 155km/h | 11662m | 4.3m/s | -56.2°C | 0% | 215.0hPa | 0V | 00:00:00 | 00:00:00 | 00:00:00 | |
| SP3WXH-11 | 2026-09-04 11:49:19 | 52.15537 | 21.68037 | 127° | 151km/h | 11522m | 5.8m/s | -54.9°C | 65.3% | 219.8hPa | 0V | 00:00:00 | 00:00:00 | 00:00:00 | |
| SP4MAZ | 2026-09-04 11:49:15 | 52.15607 | 21.67885 | 127° | 153km/h | 11506m | 6.4m/s | 0°C | 0% | 220.3hPa | 0V | 00:00:00 | 00:00:00 | 00:00:00 | |
| SP3WXH-11 | 2026-09-04 11:48:48 | 52.16308 | 21.66494 | 128° | 151km/h | 11353m | 4.1m/s | -53.5°C | 64.7% | 225.5hPa | 0V | 00:00:00 | 00:00:00 | 00:00:00 | |
| SP4MAZ | 2026-09-04 11:48:32 | 52.16669 | 21.65758 | 128° | 151km/h | 11282m | 4.3m/s | -52.8°C | 0% | 228.1hPa | 0V | 00:00:00 | 00:00:00 | 00:00:00 | |
| SP3WXH-11 | 2026-09-04 11:48:17 | 52.17058 | 21.64984 | 128° | 150km/h | 11198m | 3.8m/s | -52.0°C | 65.2% | 231.1hPa | 0V | 00:00:00 | 00:00:00 | 00:00:00 | |
| SP4MAZ | 2026-09-04 11:48:11 | 52.17176 | 21.64740 | 128° | 148km/h | 11172m | 3.8m/s | -51.8°C | 0% | 231.9hPa | 0V | 00:00:00 | 00:00:00 | 00:00:00 | |
| SP4MAZ | 2026-09-04 11:47:51 | 52.17653 | 21.63779 | 130° | 153km/h | 11076m | 4.7m/s | -50.9°C | 0% | 235.5hPa | 0V | 00:00:00 | 00:00:00 | 00:00:00 | |
| SP4MAZ | 2026-09-04 11:47:21 | 52.18382 | 21.62342 | 128° | 148km/h | 10903m | 7.2m/s | 0°C | 0% | 241.7hPa | 0V | 00:00:00 | 00:00:00 | 00:00:00 | |
| SP3WXH-11 | 2026-09-04 11:47:15 | 52.18547 | 21.62007 | 129° | 146km/h | 10863m | 6.2m/s | -49.0°C | 63.5% | 243.3hPa | 0V | 00:00:00 | 00:00:00 | 00:00:00 | |
| SP4MAZ | 2026-09-04 11:47:01 | 52.18843 | 21.61387 | 130° | 142km/h | 10788m | 6.4m/s | 0°C | 0% | 246.0hPa | 0V | 00:00:00 | 00:00:00 | 00:00:00 | |
| SP3WXH-11 | 2026-09-04 11:46:44 | 52.19251 | 21.60552 | 129° | 137km/h | 10682m | 6.0m/s | -47.3°C | 63.1% | 250.1hPa | 0V | 00:00:00 | 00:00:00 | 00:00:00 | |
| SP4MAZ | 2026-09-04 11:46:15 | 52.19880 | 21.59230 | 129° | 151km/h | 10520m | 5.4m/s | -45.8°C | 0% | 256.3hPa | 0V | 00:00:00 | 00:00:00 | 00:00:00 | |
| SP4MAZ | 2026-09-04 11:45:54 | 52.20336 | 21.58259 | 127° | 137km/h | 10391m | 5.9m/s | -44.7°C | 0% | 261.2hPa | 0V | 00:00:00 | 00:00:00 | 00:00:00 | |
| SP3WXH-11 | 2026-09-04 11:45:42 | 52.20613 | 21.57653 | 127° | 141km/h | 10317m | 4.3m/s | -44.0°C | 56.8% | 264.1hPa | 0V | 00:00:00 | 00:00:00 | 00:00:00 | |
| SP4MAZ | 2026-09-04 11:45:34 | 52.20786 | 21.57274 | 128° | 141km/h | 10271m | 6.4m/s | -43.6°C | 0% | 265.8hPa | 0V | 00:00:00 | 00:00:00 | 00:00:00 | |
| SP3WXH-11 | 2026-09-04 11:45:11 | 52.21286 | 21.56209 | 128° | 133km/h | 10146m | 7.4m/s | -42.8°C | 57.0% | 270.8hPa | 0V | 00:00:00 | 00:00:00 | 00:00:00 | |
| SP4MAZ | 2026-09-04 11:44:43 | 52.21876 | 21.54896 | 129° | 148km/h | 9974m | 4.8m/s | 0°C | 0% | 277.9hPa | 0V | 00:00:00 | 00:00:00 | 00:00:00 | |
| SP3WXH-11 | 2026-09-04 11:44:40 | 52.21967 | 21.54698 | 124° | 151km/h | 9949m | 5.3m/s | -41.2°C | 60.1% | 278.8hPa | 0V | 00:00:00 | 00:00:00 | 00:00:00 | |
| SP4MAZ | 2026-09-04 11:44:22 | 52.22374 | 21.53823 | 129° | 142km/h | 9859m | 5.0m/s | -40.4°C | 0% | 282.7hPa | 0V | 00:00:00 | 00:00:00 | 00:00:00 | |
| SP3WXH-11 | 2026-09-04 11:44:09 | 52.22675 | 21.53198 | 128° | 150km/h | 9797m | 3.5m/s | -39.9°C | 63.8% | 285.2hPa | 0V | 00:00:00 | 00:00:00 | 00:00:00 | |
| SP4MAZ | 2026-09-04 11:44:00 | 52.22858 | 21.52813 | 131° | 151km/h | 9752m | 5.4m/s | -39.6°C | 0% | 287.0hPa | 0V | 00:00:00 | 00:00:00 | 00:00:00 | |
| SP4MAZ | 2026-09-04 11:43:40 | 52.23328 | 21.51895 | 130° | 137km/h | 9634m | 4.9m/s | -38.8°C | 0% | 292.0hPa | 0V | 00:00:00 | 00:00:00 | 00:00:00 | |
| SP3WXH-11 | 2026-09-04 11:43:38 | 52.23391 | 21.51765 | 129° | 131km/h | 9619m | 5.8m/s | 0°C | -1.0% | 292.7hPa | 0V | 00:00:00 | 00:00:00 | 00:00:00 | |
| SP4MAZ | 2026-09-04 11:43:09 | 52.24009 | 21.50462 | 128° | 144km/h | 9441m | 5.5m/s | 0°C | 0% | 0hPa | 0V | 00:00:00 | 00:00:00 | 00:00:00 | |
| SP4MAZ | 2026-09-04 11:42:49 | 52.24466 | 21.49453 | 128° | 153km/h | 9317m | 4.7m/s | 0°C | 0% | 0hPa | 0V | 00:00:00 | 00:00:00 | 00:00:00 | |
| SP4MAZ | 2026-09-04 11:42:27 | 52.24930 | 21.48425 | 127° | 155km/h | 9190m | 6.7m/s | 0°C | 0% | 0hPa | 0V | 00:00:00 | 00:00:00 | 00:00:00 | |
| SP4MAZ | 2026-09-04 11:42:07 | 52.25340 | 21.47447 | 123° | 146km/h | 9072m | 4.7m/s | 0°C | 0% | 0hPa | 0V | 00:00:00 | 00:00:00 | 00:00:00 | |
| SP4MAZ | 2026-09-04 11:41:44 | 52.25828 | 21.46364 | 131° | 141km/h | 8923m | 7.7m/s | 0°C | 0% | 0hPa | 0V | 00:00:00 | 00:00:00 | 00:00:00 | |
| SP4MAZ | 2026-09-04 11:41:15 | 52.26466 | 21.44962 | 126° | 133km/h | 8731m | 5.6m/s | 0°C | 0% | 0hPa | 0V | 00:00:00 | 00:00:00 | 00:00:00 | |
| SP4MAZ | 2026-09-04 11:40:43 | 52.27133 | 21.43532 | 128° | 137km/h | 8526m | 8.0m/s | 0°C | 0% | 0hPa | 0V | 00:00:00 | 00:00:00 | 00:00:00 | |
| SP4MAZ | 2026-09-04 11:40:22 | 52.27590 | 21.42581 | 127° | 130km/h | 8388m | 6.7m/s | 0°C | 0% | 0hPa | 0V | 00:00:00 | 00:00:00 | 00:00:00 | |
| SP4MAZ | 2026-09-04 11:39:59 | 52.28055 | 21.41578 | 127° | 142km/h | 8251m | 5.1m/s | 0°C | 0% | 0hPa | 0V | 00:00:00 | 00:00:00 | 00:00:00 | |
| SP4MAZ | 2026-09-04 11:39:07 | 52.29068 | 21.39271 | 124° | 130km/h | 7938m | 5.7m/s | 0°C | 0% | 0hPa | 0V | 00:00:00 | 00:00:00 | 00:00:00 | |
| SP4MAZ | 2026-09-04 11:38:47 | 52.29444 | 21.38417 | 131° | 122km/h | 7819m | 4.4m/s | 0°C | 0% | 0hPa | 0V | 00:00:00 | 00:00:00 | 00:00:00 | |
| SP4MAZ | 2026-09-04 11:38:24 | 52.29869 | 21.37463 | 129° | 120km/h | 7694m | 7.2m/s | 0°C | 0% | 0hPa | 0V | 00:00:00 | 00:00:00 | 00:00:00 | |
| SP4MAZ | 2026-09-04 11:38:04 | 52.30248 | 21.36623 | 132° | 124km/h | 7569m | 6.6m/s | 0°C | 0% | 0hPa | 0V | 00:00:00 | 00:00:00 | 00:00:00 | |
| SP4MAZ | 2026-09-04 11:37:34 | 52.30820 | 21.35360 | 128° | 124km/h | 7405m | 5.8m/s | 0°C | 0% | 0hPa | 0V | 00:00:00 | 00:00:00 | 00:00:00 | |
| SP4MAZ | 2026-09-04 11:37:11 | 52.31237 | 21.34403 | 127° | 122km/h | 7287m | 5.5m/s | 0°C | 0% | 0hPa | 0V | 00:00:00 | 00:00:00 | 00:00:00 | |
| SP4MAZ | 2026-09-04 11:36:51 | 52.31606 | 21.33602 | 124° | 124km/h | 7172m | 7.4m/s | 0°C | 0% | 0hPa | 0V | 00:00:00 | 00:00:00 | 00:00:00 | |
| SP4MAZ | 2026-09-04 11:36:31 | 52.31922 | 21.32751 | 122° | 128km/h | 7070m | 5.5m/s | 0°C | 0% | 0hPa | 0V | 00:00:00 | 00:00:00 | 00:00:00 | |
| SP4MAZ | 2026-09-04 11:36:10 | 52.32239 | 21.31827 | 124° | 124km/h | 6949m | 6.9m/s | 0°C | 0% | 0hPa | 0V | 00:00:00 | 00:00:00 | 00:00:00 | |
| SP4MAZ | 2026-09-04 11:35:51 | 52.32568 | 21.30988 | 122° | 115km/h | 6842m | 5.6m/s | 0°C | 0% | 0hPa | 0V | 00:00:00 | 00:00:00 | 00:00:00 | |
| SP4MAZ | 2026-09-04 11:35:18 | 52.33023 | 21.29661 | 116° | 120km/h | 6672m | 3.5m/s | 0°C | 0% | 0hPa | 0V | 00:00:00 | 00:00:00 | 00:00:00 | |
| SP4MAZ | 2026-09-04 11:34:58 | 52.33310 | 21.28828 | 126° | 110km/h | 6573m | 7.0m/s | 0°C | 0% | 0hPa | 0V | 00:00:00 | 00:00:00 | 00:00:00 | |
| SP4MAZ | 2026-09-04 11:34:36 | 52.33597 | 21.27958 | 117° | 119km/h | 6462m | 7.0m/s | 0°C | 0% | 0hPa | 0V | 00:00:00 | 00:00:00 | 00:00:00 | |
| SP4MAZ | 2026-09-04 11:34:15 | 52.33896 | 21.27116 | 124° | 111km/h | 6354m | 7.1m/s | 0°C | 0% | 0hPa | 0V | 00:00:00 | 00:00:00 | 00:00:00 | |
| SP4MAZ | 2026-09-04 11:33:45 | 52.34294 | 21.25968 | 119° | 100km/h | 6192m | 4.7m/s | 0°C | 0% | 0hPa | 0V | 00:00:00 | 00:00:00 | 00:00:00 | |
| SP4MAZ | 2026-09-04 11:33:25 | 52.34560 | 21.25227 | 119° | 102km/h | 6094m | 3.9m/s | 0°C | 0% | 0hPa | 0V | 00:00:00 | 00:00:00 | 00:00:00 | |
| SP4MAZ | 2026-09-04 11:33:01 | 52.34863 | 21.24327 | 112° | 95km/h | 5964m | 6.5m/s | 0°C | 0% | 0hPa | 0V | 00:00:00 | 00:00:00 | 00:00:00 | |
| SP4MAZ | 2026-09-04 11:32:40 | 52.35101 | 21.23539 | 117° | 102km/h | 5847m | 4.7m/s | 0°C | 0% | 0hPa | 0V | 00:00:00 | 00:00:00 | 00:00:00 | |
| SP4MAZ | 2026-09-04 11:32:08 | 52.35473 | 21.22306 | 111° | 110km/h | 5674m | 6.9m/s | 0°C | 0% | 0hPa | 0V | 00:00:00 | 00:00:00 | 00:00:00 | |
| SP4MAZ | 2026-09-04 11:31:48 | 52.35684 | 21.21514 | 111° | 108km/h | 5562m | 4.2m/s | 0°C | 0% | 0hPa | 0V | 00:00:00 | 00:00:00 | 00:00:00 | |
| SP4MAZ | 2026-09-04 11:31:26 | 52.35913 | 21.20555 | 116° | 93km/h | 5424m | 4.4m/s | 0°C | 0% | 0hPa | 0V | 00:00:00 | 00:00:00 | 00:00:00 | |
| SP4MAZ | 2026-09-04 11:31:05 | 52.36104 | 21.19722 | 109° | 110km/h | 5304m | 6.9m/s | 0°C | 0% | 0hPa | 0V | 00:00:00 | 00:00:00 | 00:00:00 | |
| SP4MAZ | 2026-09-04 11:30:32 | 52.36419 | 21.18392 | 112° | 95km/h | 5113m | 4.5m/s | 0°C | 0% | 0hPa | 0V | 00:00:00 | 00:00:00 | 00:00:00 | |
| SP4MAZ | 2026-09-04 11:30:11 | 52.36638 | 21.17574 | 113° | 95km/h | 4992m | 5.6m/s | 0°C | 0% | 0hPa | 0V | 00:00:00 | 00:00:00 | 00:00:00 | |
| SP4MAZ | 2026-09-04 11:29:48 | 52.36879 | 21.16719 | 121° | 100km/h | 4861m | 6.2m/s | 0°C | 0% | 0hPa | 0V | 00:00:00 | 00:00:00 | 00:00:00 | |
| SP4MAZ | 2026-09-04 11:29:17 | 52.37226 | 21.15669 | 117° | 86km/h | 4674m | 8.2m/s | 0°C | 0% | 0hPa | 0V | 00:00:00 | 00:00:00 | 00:00:00 | |
| SP4MAZ | 2026-09-04 11:28:55 | 52.37460 | 21.14991 | 118° | 86km/h | 4540m | 4.0m/s | 0°C | 0% | 0hPa | 0V | 00:00:00 | 00:00:00 | 00:00:00 | |
| SP4MAZ | 2026-09-04 11:28:32 | 52.37712 | 21.14240 | 121° | 95km/h | 4411m | 4.0m/s | 0°C | 0% | 0hPa | 0V | 00:00:00 | 00:00:00 | 00:00:00 | |
| SP4MAZ | 2026-09-04 11:28:01 | 52.38031 | 21.13177 | 112° | 91km/h | 4222m | 6.0m/s | 0°C | 0% | 0hPa | 0V | 00:00:00 | 00:00:00 | 00:00:00 | |
| SP4MAZ | 2026-09-04 11:27:40 | 52.38272 | 21.12445 | 121° | 104km/h | 4106m | 4.7m/s | 0°C | 0% | 0hPa | 0V | 00:00:00 | 00:00:00 | 00:00:00 | |
| SP4MAZ | 2026-09-04 11:27:20 | 52.38510 | 21.11756 | 116° | 97km/h | 4004m | 6.5m/s | 0°C | 0% | 0hPa | 0V | 00:00:00 | 00:00:00 | 00:00:00 | |
| SP4MAZ | 2026-09-04 11:26:56 | 52.38792 | 21.10936 | 120° | 97km/h | 3884m | 6.3m/s | 0°C | 0% | 0hPa | 0V | 00:00:00 | 00:00:00 | 00:00:00 | |
| SP4MAZ | 2026-09-04 11:26:36 | 52.38999 | 21.10269 | 119° | 89km/h | 3784m | 6.0m/s | 0°C | 0% | 0hPa | 0V | 00:00:00 | 00:00:00 | 00:00:00 | |
| SP4MAZ | 2026-09-04 11:26:17 | 52.39218 | 21.09579 | 119° | 99km/h | 3674m | 4.6m/s | 0°C | 0% | 0hPa | 0V | 00:00:00 | 00:00:00 | 00:00:00 | |
| SP4MAZ | 2026-09-04 11:25:46 | 52.39547 | 21.08566 | 115° | 93km/h | 3512m | 4.2m/s | 0°C | 0% | 0hPa | 0V | 00:00:00 | 00:00:00 | 00:00:00 | |
| SP4MAZ | 2026-09-04 11:25:26 | 52.39724 | 21.07889 | 116° | 71km/h | 3400m | 7.1m/s | 0°C | 0% | 0hPa | 0V | 00:00:00 | 00:00:00 | 00:00:00 | |
| SP4MAZ | 2026-09-04 11:25:03 | 52.39919 | 21.07246 | 113° | 82km/h | 3260m | 4.6m/s | 0°C | 0% | 0hPa | 0V | 00:00:00 | 00:00:00 | 00:00:00 | |
| SP4MAZ | 2026-09-04 11:23:38 | 52.40399 | 21.04851 | 98° | 73km/h | 2808m | 5.4m/s | 0°C | 0% | 0hPa | 0V | 00:00:00 | 00:00:00 | 00:00:00 |